createdAt,value
2023-05-05T00:01:12.374Z,101546.59
2023-05-05T00:06:07.274Z,101504.56
2023-05-05T00:11:01.878Z,101545.34
2023-05-05T00:15:55.345Z,101629.00
2023-05-05T00:20:49.228Z,101594.50
2023-05-05T00:25:42.438Z,101589.34
2023-05-05T00:30:38.168Z,101585.19
2023-05-05T00:35:31.381Z,101505.28
2023-05-05T00:40:25.580Z,101590.59
2023-05-05T00:45:20.035Z,101530.31
2023-05-05T00:50:22.860Z,101586.09
2023-05-05T00:55:16.144Z,101611.22
2023-05-05T01:00:10.857Z,101576.63
2023-05-05T01:05:05.037Z,101569.00
2023-05-05T01:10:18.760Z,101604.03
2023-05-05T01:15:22.476Z,101575.63
2023-05-05T01:20:22.769Z,101610.41
2023-05-05T01:25:32.201Z,101596.38
2023-05-05T01:31:05.897Z,101540.44
2023-05-05T01:36:08.836Z,101488.19
2023-05-05T01:41:06.800Z,101484.84
2023-05-05T01:46:01.857Z,101556.34
2023-05-05T01:50:56.577Z,101507.78
2023-05-05T01:55:53.933Z,101519.44
2023-05-05T02:00:49.108Z,101443.25
2023-05-05T02:05:45.297Z,101514.03
2023-05-05T02:10:41.000Z,101582.84
2023-05-05T02:15:39.395Z,101477.84
2023-05-05T02:20:35.765Z,101508.25
2023-05-05T02:25:36.793Z,101587.16
2023-05-05T02:30:33.583Z,101578.78
2023-05-05T02:35:35.979Z,101585.97
2023-05-05T02:40:34.359Z,101589.81
2023-05-05T02:45:30.414Z,101561.25
2023-05-05T02:50:24.858Z,101573.00
2023-05-05T02:55:37.872Z,101564.16
2023-05-05T03:00:40.425Z,101587.84
2023-05-05T03:05:43.966Z,101587.31
2023-05-05T03:10:47.496Z,101538.13
2023-05-05T03:15:45.982Z,101546.59
2023-05-05T03:20:41.805Z,101575.56
2023-05-05T03:25:46.261Z,101539.34
2023-05-05T03:30:47.893Z,101560.72
2023-05-05T03:35:43.205Z,101595.25
2023-05-05T03:40:44.150Z,101605.69
2023-05-05T03:45:42.644Z,101600.31
2023-05-05T03:50:36.755Z,101590.22
2023-05-05T03:55:30.379Z,101600.31
2023-05-05T04:00:23.749Z,101565.44
2023-05-05T04:05:19.960Z,101603.66
2023-05-05T04:10:13.695Z,101616.44
2023-05-05T04:15:08.234Z,101620.84
2023-05-05T04:20:03.735Z,101492.25
2023-05-05T04:25:00.309Z,101552.69
2023-05-05T04:29:54.829Z,101586.88
2023-05-05T04:34:48.526Z,101553.06
2023-05-05T04:39:42.723Z,101567.44
2023-05-05T04:44:37.884Z,101609.38
2023-05-05T04:49:31.462Z,101603.25
2023-05-05T04:54:25.416Z,101621.66
2023-05-05T04:59:18.694Z,101622.22
2023-05-05T05:04:14.043Z,101626.31
2023-05-05T05:09:09.125Z,101622.22
2023-05-05T05:14:02.554Z,101631.47
2023-05-05T05:18:56.110Z,101648.56
2023-05-05T05:23:51.109Z,101652.38
2023-05-05T05:28:44.981Z,101640.00
2023-05-05T05:33:38.685Z,101650.31
2023-05-05T05:38:32.698Z,101645.28
2023-05-05T05:43:30.236Z,101657.34
2023-05-05T05:48:28.392Z,101674.97
2023-05-05T05:53:22.513Z,101639.00
2023-05-05T05:58:17.176Z,101653.63
2023-05-05T06:03:13.259Z,101601.09
2023-05-05T06:08:08.269Z,101649.59
2023-05-05T06:13:06.500Z,101660.34
2023-05-05T06:18:01.780Z,101651.09
2023-05-05T06:22:56.367Z,101663.84
2023-05-05T06:27:50.716Z,101668.97
2023-05-05T06:32:44.066Z,101625.78
2023-05-05T06:37:37.223Z,101665.88
2023-05-05T06:42:32.306Z,101643.00
2023-05-05T06:47:26.730Z,101677.84
2023-05-05T06:52:19.849Z,101680.72
2023-05-05T06:57:12.932Z,101638.66
2023-05-05T07:02:07.509Z,101654.44
2023-05-05T07:07:01.307Z,101687.19
2023-05-05T07:11:54.470Z,101670.41
2023-05-05T07:16:47.599Z,101675.56
2023-05-05T07:21:42.702Z,101664.44
2023-05-05T07:26:35.982Z,101679.88
2023-05-05T07:31:29.096Z,101678.94
2023-05-05T07:36:22.443Z,101698.97
2023-05-05T07:41:19.618Z,101699.19
2023-05-05T07:46:13.924Z,101665.72
2023-05-05T07:51:07.139Z,101669.63
2023-05-05T07:56:00.233Z,101706.41
2023-05-05T08:00:54.750Z,101708.09
2023-05-05T08:05:49.411Z,101681.31
2023-05-05T08:10:44.296Z,101715.44
2023-05-05T08:15:38.024Z,101711.78
2023-05-05T08:20:32.688Z,101706.94
2023-05-05T08:25:26.944Z,101686.34
2023-05-05T08:30:21.472Z,101708.03
2023-05-05T08:35:14.839Z,101697.28
2023-05-05T08:40:14.139Z,101709.22
2023-05-05T08:45:09.169Z,101662.91
2023-05-05T08:50:03.391Z,101702.59
2023-05-05T08:55:01.522Z,101673.34
2023-05-05T08:59:58.909Z,101707.47
2023-05-05T09:04:53.286Z,101681.63
2023-05-05T09:09:46.993Z,101710.22
2023-05-05T09:14:40.397Z,101715.25
2023-05-05T09:19:35.245Z,101681.28
2023-05-05T09:24:28.505Z,101711.13
2023-05-05T09:29:22.873Z,101681.22
2023-05-05T09:34:17.360Z,101685.03
2023-05-05T09:39:12.028Z,101696.72
2023-05-05T09:44:05.268Z,101649.53
2023-05-05T09:49:12.430Z,101689.78
2023-05-05T09:54:07.438Z,101684.19
2023-05-05T09:59:11.210Z,101695.19
2023-05-05T10:04:04.336Z,101690.53
2023-05-05T10:09:07.541Z,101670.56
2023-05-05T10:14:01.031Z,101660.81
2023-05-05T10:18:58.102Z,101670.25
2023-05-05T10:24:01.765Z,101682.06
2023-05-05T10:28:57.367Z,101559.59
2023-05-05T10:33:56.438Z,101667.88
2023-05-05T10:38:51.673Z,101660.16
2023-05-05T10:43:48.131Z,101666.44
2023-05-05T10:48:48.253Z,101673.97
2023-05-05T10:53:45.775Z,101671.03
2023-05-05T10:58:51.296Z,101663.44
2023-05-05T11:03:52.232Z,101668.13
2023-05-05T11:08:47.084Z,101649.97
2023-05-05T11:13:41.165Z,101649.63
2023-05-05T11:18:39.449Z,101638.94
2023-05-05T11:23:35.046Z,101636.38
2023-05-05T11:28:31.413Z,101608.44
2023-05-05T11:33:24.781Z,101583.63
2023-05-05T11:38:20.240Z,101595.00
2023-05-05T11:43:13.409Z,101511.19
2023-05-05T11:48:27.127Z,101603.50
2023-05-05T11:53:21.182Z,101562.78
2023-05-05T11:58:20.379Z,101581.59
2023-05-05T12:03:13.772Z,101583.28
2023-05-05T12:08:08.529Z,101563.81
2023-05-05T12:13:01.685Z,101548.50
2023-05-05T12:17:54.879Z,101562.28
2023-05-05T12:22:48.079Z,101555.31
2023-05-05T12:27:52.735Z,101544.16
2023-05-05T12:32:46.786Z,101508.13
2023-05-05T12:37:40.305Z,101399.31
2023-05-05T12:42:39.023Z,101532.59
2023-05-05T12:47:35.156Z,101506.94
2023-05-05T12:52:45.650Z,101510.97
2023-05-05T12:57:39.957Z,101483.06
2023-05-05T13:02:36.721Z,101498.75
2023-05-05T13:07:30.033Z,101478.63
2023-05-05T13:12:25.103Z,101494.22
2023-05-05T13:17:18.656Z,101458.66
2023-05-05T13:22:14.702Z,101409.28
2023-05-05T13:27:08.025Z,101461.81
2023-05-05T13:32:01.201Z,101462.75
2023-05-05T13:36:54.362Z,101459.41
2023-05-05T13:41:48.978Z,101438.34
2023-05-05T13:46:42.753Z,101454.75
2023-05-05T13:51:36.086Z,101423.38
2023-05-05T13:56:29.989Z,101443.28
2023-05-05T14:01:24.637Z,101443.00
2023-05-05T14:06:17.942Z,101418.78
2023-05-05T14:11:11.004Z,101405.75
2023-05-05T14:16:04.200Z,101421.31
2023-05-05T14:21:00.819Z,101424.75
2023-05-05T14:25:55.842Z,101409.13
2023-05-05T14:30:50.885Z,101414.53
2023-05-05T14:35:44.224Z,101420.00
2023-05-05T14:40:38.697Z,101378.06
2023-05-05T14:45:32.720Z,101412.56
2023-05-05T14:50:25.916Z,101425.47
2023-05-05T14:55:19.273Z,101417.72
2023-05-05T15:00:14.670Z,101416.97
2023-05-05T15:05:08.936Z,101410.53
2023-05-05T15:10:02.238Z,101405.00
2023-05-05T15:14:55.527Z,101405.50
2023-05-05T15:19:50.176Z,101406.25
2023-05-05T15:24:43.246Z,101417.31
2023-05-05T15:29:36.410Z,101416.44
2023-05-05T15:34:29.640Z,101414.19
2023-05-05T15:39:24.313Z,101407.84
2023-05-05T15:44:17.498Z,101371.72
2023-05-05T15:49:10.783Z,101410.63
2023-05-05T15:54:03.976Z,101408.44
2023-05-05T15:58:58.522Z,101407.06
2023-05-05T16:03:51.909Z,101400.50
2023-05-05T16:08:45.375Z,101348.84
2023-05-05T16:13:39.267Z,101353.03
2023-05-05T16:18:33.775Z,101395.38
2023-05-05T16:23:26.898Z,101393.56
2023-05-05T16:28:20.018Z,101401.75
2023-05-05T16:33:13.126Z,101381.88
2023-05-05T16:38:07.901Z,101404.53
2023-05-05T16:43:01.131Z,101382.97
2023-05-05T16:47:55.423Z,101409.91
2023-05-05T16:52:48.734Z,101384.19
2023-05-05T16:57:43.217Z,101404.06
2023-05-05T17:02:36.762Z,101412.03
2023-05-05T17:07:30.295Z,101410.88
2023-05-05T17:12:23.722Z,101403.38
2023-05-05T17:17:21.255Z,101395.50
2023-05-05T17:22:14.445Z,101420.03
2023-05-05T17:27:07.645Z,101425.06
2023-05-05T17:32:00.807Z,101425.66
2023-05-05T17:36:55.258Z,101406.31
2023-05-05T17:41:48.362Z,101395.03
2023-05-05T17:46:41.534Z,101428.66
2023-05-05T17:51:34.650Z,101437.41
2023-05-05T17:56:29.113Z,101425.97
2023-05-05T18:01:22.480Z,101458.81
2023-05-05T18:06:15.592Z,101449.78
2023-05-05T18:11:08.767Z,101461.25
2023-05-05T18:16:03.279Z,101442.09
2023-05-05T18:20:56.360Z,101444.38
2023-05-05T18:25:49.477Z,101460.97
2023-05-05T18:30:42.642Z,101432.94
2023-05-05T18:35:37.276Z,101447.72
2023-05-05T18:40:32.471Z,101448.19
2023-05-05T18:45:25.946Z,101470.53
2023-05-05T18:50:19.161Z,101468.94
2023-05-05T18:55:13.618Z,101474.53
2023-05-05T19:00:07.956Z,101467.97
2023-05-05T19:05:01.140Z,101466.44
2023-05-05T19:09:54.387Z,101466.09
2023-05-05T19:14:48.856Z,101464.84
2023-05-05T19:19:41.922Z,101448.50
2023-05-05T19:24:35.728Z,101470.47
2023-05-05T19:29:29.043Z,101443.84
2023-05-05T19:34:23.676Z,101471.66
2023-05-05T19:39:16.833Z,101454.75
2023-05-05T19:44:09.885Z,101468.00
2023-05-05T19:49:02.936Z,101430.84
2023-05-05T19:53:57.457Z,101457.75
2023-05-05T19:58:57.490Z,101434.69
2023-05-05T20:03:52.342Z,101442.34
2023-05-05T20:08:47.571Z,101445.44
2023-05-05T20:13:42.222Z,101451.09
2023-05-05T20:18:35.462Z,101447.34
2023-05-05T20:23:28.818Z,101451.78
2023-05-05T20:28:22.586Z,101415.91
2023-05-05T20:33:17.103Z,101451.66
2023-05-05T20:38:10.466Z,101443.78
2023-05-05T20:43:03.780Z,101449.94
2023-05-05T20:47:56.847Z,101439.88
2023-05-05T20:52:51.518Z,101414.03
2023-05-05T20:57:44.569Z,101447.84
2023-05-05T21:02:39.290Z,101442.94
2023-05-05T21:07:34.203Z,101412.31
2023-05-05T21:12:30.681Z,101435.09
2023-05-05T21:17:23.974Z,101448.53
2023-05-05T21:22:17.100Z,101449.09
2023-05-05T21:27:10.330Z,101434.25
2023-05-05T21:32:04.872Z,101441.38
2023-05-05T21:36:58.240Z,101426.00
2023-05-05T21:41:51.710Z,101435.91
2023-05-05T21:46:44.880Z,101438.94
2023-05-05T21:51:39.339Z,101424.09
2023-05-05T21:56:32.406Z,101420.63
2023-05-05T22:01:25.610Z,101427.22
2023-05-05T22:06:20.528Z,101441.72
2023-05-05T22:11:15.129Z,101434.03
2023-05-05T22:16:08.686Z,101443.25
2023-05-05T22:21:01.896Z,101431.31
2023-05-05T22:25:55.363Z,101423.97
2023-05-05T22:30:50.216Z,101421.25
2023-05-05T22:35:43.432Z,101436.03
2023-05-05T22:40:39.103Z,101422.72
2023-05-05T22:45:32.190Z,101398.19
2023-05-05T22:50:26.776Z,101354.69
2023-05-05T22:55:20.428Z,101412.88
2023-05-05T23:00:14.699Z,101409.31
2023-05-05T23:05:08.590Z,101411.09
2023-05-05T23:10:04.765Z,101405.97
2023-05-05T23:14:57.987Z,101362.50
2023-05-05T23:19:51.560Z,101401.16
2023-05-05T23:24:44.944Z,101375.06
2023-05-05T23:29:39.625Z,101377.59
2023-05-05T23:34:32.778Z,101385.34
2023-05-05T23:39:25.987Z,101393.38
2023-05-05T23:44:19.179Z,101355.31
2023-05-05T23:49:13.747Z,101392.56
2023-05-05T23:54:07.360Z,101369.97
2023-05-05T23:59:00.661Z,101392.69
